Galicia — ECEC — position and weather

sailwx.info

Track history (hours):
 
Tides and Currents Weather Stations Pressure Air Temp Water Temp Dewpoint Dewpoint Depression Visibility Wind Speed Wind Dir Waves Ship Positions

Galicia

Last reported at 2016-May-01 13:33 UTC. Time now 2016-May-01 13:38 UTC.
Position N 49°33' W 000°11'.

Length 149 m; draft 5.4 m.

Type: Cargo ship. MMSI: 224548000.

Date/timePositionNaut miles runAvg speedWind from/ knotsBaromVisibWave heightAir tempDewpointWater temp
2016-May-01 13:33N 49°33' W 000°11'9 9.4
2016-May-01 12:33N 49°42' W 000°07'10 9.8
2016-May-01 11:33N 49°52' W 000°07'10 9.6
2016-May-01 10:33N 50°01' W 000°06'10 9.8
2016-May-01 09:33N 50°11' W 000°05'10 9.8
2016-May-01 08:33N 50°21' W 000°03'9 9.3
2016-May-01 07:33N 50°29' E 000°03'1010.4
2016-May-01 06:33N 50°33' E 000°18'33 9.5
2016-May-01 03:06N 50°51' E 001°02'6 9.7
2016-May-01 02:32N 50°55' E 001°09'1010.5
2016-May-01 01:33N 51°01' E 001°21'1111.7
2016-May-01 00:33N 51°09' E 001°35'1111.0
2016-Apr-30 23:33N 51°16' E 001°48'1010.2
2016-Apr-30 22:33N 51°24' E 001°59'9 9.1
2016-Apr-30 21:33N 51°22' E 002°13'9 8.9
2016-Apr-30 20:30N 51°22' E 002°28'9 8.7
2016-Apr-30 19:29N 51°22' E 002°42'1112.2
2016-Apr-30 18:33N 51°22' E 003°00'8 8.2
2016-Apr-30 17:33N 51°20' E 003°13'2 1.1
2016-Apr-30 16:04N 51°19' E 003°14'0 0.0
2016-Apr-30 15:31N 51°19' E 003°14'0 0.0
2016-Apr-30 14:25N 51°19' E 003°14'0 0.0
2016-Apr-30 13:16N 51°19' E 003°14'0 0.0
2016-Apr-30 12:19N 51°19' E 003°14'0 0.0
2016-Apr-30 11:13N 51°19' E 003°14'0 0.0
2016-Apr-30 10:28N 51°19' E 003°14'0 0.0
2016-Apr-30 07:03N 51°19' E 003°14'0 0.0
2016-Apr-30 06:33N 51°19' E 003°14'0 0.0
2016-Apr-30 05:33N 51°19' E 003°14'0 0.0
2016-Apr-30 04:21N 51°19' E 003°14'0 0.0
2016-Apr-30 02:30N 51°19' E 003°14'0 0.0
2016-Apr-30 01:33N 51°19' E 003°14'0 0.0
2016-Apr-30 00:33N 51°19' E 003°14'0 0.0
2016-Apr-29 23:30N 51°19' E 003°14'0 0.0
2016-Apr-29 22:15N 51°19' E 003°14'1 0.9
2016-Apr-29 21:33N 51°19' E 003°13'1 0.9
2016-Apr-29 20:33N 51°20' E 003°13'5 4.8
2016-Apr-29 19:33N 51°24' E 003°08'1111.4
2016-Apr-29 18:33N 51°22' E 002°50'8 7.5
2016-Apr-29 17:33N 51°22' E 002°38'7 7.2
2016-Apr-29 16:32N 51°21' E 002°26'7 7.6
2016-Apr-29 15:33N 51°18' E 002°15'6 6.5
2016-Apr-29 14:33N 51°20' E 002°05'8 8.4
2016-Apr-29 13:33N 51°26' E 001°56'9 8.7
2016-Apr-29 12:34N 51°29' E 001°42'1110.6
2016-Apr-29 11:34N 51°28' E 001°25'1514.8
2016-Apr-29 10:33N 51°29' E 001°02'1110.6
2016-Apr-29 09:31N 51°27' E 000°45'0 0.0
2016-Apr-29 08:31N 51°27' E 000°45'0 0.0
2016-Apr-29 07:31N 51°27' E 000°45'0 0.0
2016-Apr-29 06:31N 51°27' E 000°45'0 0.0
2016-Apr-29 05:31N 51°27' E 000°45'0 0.0
2016-Apr-29 04:28N 51°27' E 000°45'0 0.0
2016-Apr-29 03:31N 51°27' E 000°45'0 0.0
2016-Apr-29 02:31N 51°27' E 000°45'0 0.0
2016-Apr-29 01:31N 51°27' E 000°45'0 0.0
2016-Apr-29 00:31N 51°27' E 000°45'0 0.0
2016-Apr-28 23:31N 51°27' E 000°45'0 0.0
2016-Apr-28 22:31N 51°27' E 000°45'0 0.0
2016-Apr-28 21:31N 51°27' E 000°45'0 0.0
2016-Apr-28 20:31N 51°27' E 000°45'0 0.0
2016-Apr-28 19:30N 51°27' E 000°45'0 0.1
2016-Apr-28 18:33N 51°27' E 000°44'9 9.2
2016-Apr-28 17:33N 51°29' E 000°59'1413.9
2016-Apr-28 16:33N 51°29' E 001°21'7 7.2
2016-Apr-28 15:33N 51°27' E 001°32'9 8.8
2016-Apr-28 14:33N 51°32' E 001°44'10 9.6
2016-Apr-28 13:33N 51°36' E 001°58'158 9.6
2016-Apr-27 21:04N 53°32' E 004°55'4 8.3
2016-Apr-27 20:34N 53°33' E 005°01'8 8.5
2016-Apr-27 19:33N 53°36' E 005°15'9 9.4
2016-Apr-27 18:33N 53°39' E 005°30'1010.3
2016-Apr-27 17:33N 53°43' E 005°47'8 8.0
2016-Apr-27 16:33N 53°43' E 005°60'9 8.6
2016-Apr-27 15:33N 53°38' E 006°12'1212.5
2016-Apr-27 14:33N 53°37' E 006°32'1515.4
2016-Apr-27 13:33N 53°27' E 006°53'1110.6
2016-Apr-27 12:33N 53°20' E 007°06'2 2.4
2016-Apr-27 11:33N 53°20' E 007°10'0 0.0
2016-Apr-27 10:33N 53°20' E 007°10'0 0.0
2016-Apr-27 09:33N 53°20' E 007°10'0 0.0
2016-Apr-27 08:33N 53°20' E 007°10'0 0.0
2016-Apr-27 07:33N 53°20' E 007°10'0 0.0
2016-Apr-27 06:33N 53°20' E 007°10'0 0.0
2016-Apr-27 05:33N 53°20' E 007°10'0 0.0
2016-Apr-27 04:33N 53°20' E 007°10'0 0.0
2016-Apr-27 03:33N 53°20' E 007°10'0 0.0
2016-Apr-27 02:33N 53°20' E 007°10'0 0.3
2016-Apr-27 01:33N 53°20' E 007°09'10 9.5
2016-Apr-27 00:33N 53°25' E 006°56'1514.6
2016-Apr-26 23:34N 53°35' E 006°37'1414.3
2016-Apr-26 22:33N 53°39' E 006°15'7 6.6
2016-Apr-26 21:33N 53°39' E 006°03'7 6.6
2016-Apr-26 20:33N 53°38' E 005°52'9 9.2
2016-Apr-26 19:33N 53°35' E 005°37'9 9.3
2016-Apr-26 18:33N 53°32' E 005°23'9 9.1
2016-Apr-26 17:33N 53°29' E 005°08'33 8.3
2016-Apr-26 13:33N 53°07' E 004°27'1211.9
2016-Apr-26 12:31N 52°56' E 004°19'10713.4
2016-Apr-26 04:29N 51°36' E 002°21'1515.6
2016-Apr-26 03:34N 51°24' E 002°08'1514.7
2016-Apr-26 02:34N 51°11' E 001°57'1717.0
2016-Apr-26 01:33N 50°60' E 001°37'6014.8
2016-Apr-25 21:32N 50°24' E 000°22'1515.3
2016-Apr-25 20:34N 50°19' E 000°00'1515.1
2016-Apr-25 19:34N 50°15' W 000°23'  
2016-Apr-23 07:33N 39°23' W 009°50'1414.0
2016-Apr-23 06:33N 39°09' W 009°50'1413.7
2016-Apr-23 05:33N 38°56' W 009°51'1414.1
2016-Apr-23 04:33N 38°42' W 009°51'1414.5
2016-Apr-23 03:33N 38°28' W 009°47'1614.7
2016-Apr-23 02:30N 38°12' W 009°42'1414.6
2016-Apr-23 01:33N 37°59' W 009°38'22912.7
2016-Apr-22 07:28N 35°59' W 005°34'1112.6
2016-Apr-22 06:33N 36°01' W 005°21'22113.8
2016-Apr-21 14:33N 37°15' W 001°01'  
Track history (hours):
 
Tides and Currents Weather Stations Pressure Air Temp Water Temp Dewpoint Dewpoint Depression Visibility Wind Speed Wind Dir Waves Ship Positions

Galicia

Last reported at 2016-May-01 13:33 UTC. Time now 2016-May-01 13:38 UTC.
Position N 49°33' W 000°11'.

Length 149 m; draft 5.4 m.

Type: Cargo ship. MMSI: 224548000.

Date/timePositionNaut miles runAvg speedWind from/ knotsBaromVisibWave heightAir tempDewpointWater temp
2016-May-01 13:33N 49°33' W 000°11'9 9.4
2016-May-01 12:33N 49°42' W 000°07'10 9.8
2016-May-01 11:33N 49°52' W 000°07'10 9.6
2016-May-01 10:33N 50°01' W 000°06'10 9.8
2016-May-01 09:33N 50°11' W 000°05'10 9.8
2016-May-01 08:33N 50°21' W 000°03'9 9.3
2016-May-01 07:33N 50°29' E 000°03'1010.4
2016-May-01 06:33N 50°33' E 000°18'33 9.5
2016-May-01 03:06N 50°51' E 001°02'6 9.7
2016-May-01 02:32N 50°55' E 001°09'1010.5
2016-May-01 01:33N 51°01' E 001°21'1111.7
2016-May-01 00:33N 51°09' E 001°35'1111.0
2016-Apr-30 23:33N 51°16' E 001°48'1010.2
2016-Apr-30 22:33N 51°24' E 001°59'9 9.1
2016-Apr-30 21:33N 51°22' E 002°13'9 8.9
2016-Apr-30 20:30N 51°22' E 002°28'9 8.7
2016-Apr-30 19:29N 51°22' E 002°42'1112.2
2016-Apr-30 18:33N 51°22' E 003°00'8 8.2
2016-Apr-30 17:33N 51°20' E 003°13'2 1.1
2016-Apr-30 16:04N 51°19' E 003°14'0 0.0
2016-Apr-30 15:31N 51°19' E 003°14'0 0.0
2016-Apr-30 14:25N 51°19' E 003°14'0 0.0
2016-Apr-30 13:16N 51°19' E 003°14'0 0.0
2016-Apr-30 12:19N 51°19' E 003°14'0 0.0
2016-Apr-30 11:13N 51°19' E 003°14'0 0.0
2016-Apr-30 10:28N 51°19' E 003°14'0 0.0
2016-Apr-30 07:03N 51°19' E 003°14'0 0.0
2016-Apr-30 06:33N 51°19' E 003°14'0 0.0
2016-Apr-30 05:33N 51°19' E 003°14'0 0.0
2016-Apr-30 04:21N 51°19' E 003°14'0 0.0
2016-Apr-30 02:30N 51°19' E 003°14'0 0.0
2016-Apr-30 01:33N 51°19' E 003°14'0 0.0
2016-Apr-30 00:33N 51°19' E 003°14'0 0.0
2016-Apr-29 23:30N 51°19' E 003°14'0 0.0
2016-Apr-29 22:15N 51°19' E 003°14'1 0.9
2016-Apr-29 21:33N 51°19' E 003°13'1 0.9
2016-Apr-29 20:33N 51°20' E 003°13'5 4.8
2016-Apr-29 19:33N 51°24' E 003°08'1111.4
2016-Apr-29 18:33N 51°22' E 002°50'8 7.5
2016-Apr-29 17:33N 51°22' E 002°38'7 7.2
2016-Apr-29 16:32N 51°21' E 002°26'7 7.6
2016-Apr-29 15:33N 51°18' E 002°15'6 6.5
2016-Apr-29 14:33N 51°20' E 002°05'8 8.4
2016-Apr-29 13:33N 51°26' E 001°56'9 8.7
2016-Apr-29 12:34N 51°29' E 001°42'1110.6
2016-Apr-29 11:34N 51°28' E 001°25'1514.8
2016-Apr-29 10:33N 51°29' E 001°02'1110.6
2016-Apr-29 09:31N 51°27' E 000°45'0 0.0
2016-Apr-29 08:31N 51°27' E 000°45'0 0.0
2016-Apr-29 07:31N 51°27' E 000°45'0 0.0
2016-Apr-29 06:31N 51°27' E 000°45'0 0.0
2016-Apr-29 05:31N 51°27' E 000°45'0 0.0
2016-Apr-29 04:28N 51°27' E 000°45'0 0.0
2016-Apr-29 03:31N 51°27' E 000°45'0 0.0
2016-Apr-29 02:31N 51°27' E 000°45'0 0.0
2016-Apr-29 01:31N 51°27' E 000°45'0 0.0
2016-Apr-29 00:31N 51°27' E 000°45'0 0.0
2016-Apr-28 23:31N 51°27' E 000°45'0 0.0
2016-Apr-28 22:31N 51°27' E 000°45'0 0.0
2016-Apr-28 21:31N 51°27' E 000°45'0 0.0
2016-Apr-28 20:31N 51°27' E 000°45'0 0.0
2016-Apr-28 19:30N 51°27' E 000°45'0 0.1
2016-Apr-28 18:33N 51°27' E 000°44'9 9.2
2016-Apr-28 17:33N 51°29' E 000°59'1413.9
2016-Apr-28 16:33N 51°29' E 001°21'7 7.2
2016-Apr-28 15:33N 51°27' E 001°32'9 8.8
2016-Apr-28 14:33N 51°32' E 001°44'10 9.6
2016-Apr-28 13:33N 51°36' E 001°58'158 9.6
2016-Apr-27 21:04N 53°32' E 004°55'4 8.3
2016-Apr-27 20:34N 53°33' E 005°01'8 8.5
2016-Apr-27 19:33N 53°36' E 005°15'9 9.4
2016-Apr-27 18:33N 53°39' E 005°30'1010.3
2016-Apr-27 17:33N 53°43' E 005°47'8 8.0
2016-Apr-27 16:33N 53°43' E 005°60'9 8.6
2016-Apr-27 15:33N 53°38' E 006°12'1212.5
2016-Apr-27 14:33N 53°37' E 006°32'1515.4
2016-Apr-27 13:33N 53°27' E 006°53'1110.6
2016-Apr-27 12:33N 53°20' E 007°06'2 2.4
2016-Apr-27 11:33N 53°20' E 007°10'0 0.0
2016-Apr-27 10:33N 53°20' E 007°10'0 0.0
2016-Apr-27 09:33N 53°20' E 007°10'0 0.0
2016-Apr-27 08:33N 53°20' E 007°10'0 0.0
2016-Apr-27 07:33N 53°20' E 007°10'0 0.0
2016-Apr-27 06:33N 53°20' E 007°10'0 0.0
2016-Apr-27 05:33N 53°20' E 007°10'0 0.0
2016-Apr-27 04:33N 53°20' E 007°10'0 0.0
2016-Apr-27 03:33N 53°20' E 007°10'0 0.0
2016-Apr-27 02:33N 53°20' E 007°10'0 0.3
2016-Apr-27 01:33N 53°20' E 007°09'10 9.5
2016-Apr-27 00:33N 53°25' E 006°56'1514.6
2016-Apr-26 23:34N 53°35' E 006°37'1414.3
2016-Apr-26 22:33N 53°39' E 006°15'7 6.6
2016-Apr-26 21:33N 53°39' E 006°03'7 6.6
2016-Apr-26 20:33N 53°38' E 005°52'9 9.2
2016-Apr-26 19:33N 53°35' E 005°37'9 9.3
2016-Apr-26 18:33N 53°32' E 005°23'9 9.1
2016-Apr-26 17:33N 53°29' E 005°08'33 8.3
2016-Apr-26 13:33N 53°07' E 004°27'1211.9
2016-Apr-26 12:31N 52°56' E 004°19'10713.4
2016-Apr-26 04:29N 51°36' E 002°21'1515.6
2016-Apr-26 03:34N 51°24' E 002°08'1514.7
2016-Apr-26 02:34N 51°11' E 001°57'1717.0
2016-Apr-26 01:33N 50°60' E 001°37'6014.8
2016-Apr-25 21:32N 50°24' E 000°22'1515.3
2016-Apr-25 20:34N 50°19' E 000°00'1515.1
2016-Apr-25 19:34N 50°15' W 000°23'  
2016-Apr-23 07:33N 39°23' W 009°50'1414.0
2016-Apr-23 06:33N 39°09' W 009°50'1413.7
2016-Apr-23 05:33N 38°56' W 009°51'1414.1
2016-Apr-23 04:33N 38°42' W 009°51'1414.5
2016-Apr-23 03:33N 38°28' W 009°47'1614.7
2016-Apr-23 02:30N 38°12' W 009°42'1414.6
2016-Apr-23 01:33N 37°59' W 009°38'22912.7
2016-Apr-22 07:28N 35°59' W 005°34'1112.6
2016-Apr-22 06:33N 36°01' W 005°21'22113.8
2016-Apr-21 14:33N 37°15' W 001°01'  

Dump ship's entire track history